sensor_id;sensor_type;location;lat;lon;timestamp;pressure;altitude;pressure_sealevel;temperature;humidity
77112;BME280;66064;50.226;14.344;2023-02-19T00:01:14;99486.66;;;9.71;71.73
77112;BME280;66064;50.226;14.344;2023-02-19T00:03:47;99510.72;;;9.83;71.65
77112;BME280;66064;50.226;14.344;2023-02-19T00:06:14;99508.88;;;9.79;70.48
77112;BME280;66064;50.226;14.344;2023-02-19T00:08:40;99475.91;;;9.64;71.32
77112;BME280;66064;50.226;14.344;2023-02-19T00:11:10;99493.84;;;9.81;70.52
77112;BME280;66064;50.226;14.344;2023-02-19T00:13:38;99483.16;;;9.75;71.23
77112;BME280;66064;50.226;14.344;2023-02-19T00:16:16;99489.28;;;9.68;71.38
77112;BME280;66064;50.226;14.344;2023-02-19T00:18:43;99463.22;;;9.38;72.13
77112;BME280;66064;50.226;14.344;2023-02-19T00:21:09;99484.34;;;9.31;72.62
77112;BME280;66064;50.226;14.344;2023-02-19T00:23:36;99482.41;;;9.19;73.54
77112;BME280;66064;50.226;14.344;2023-02-19T00:26:06;99451.28;;;9.10;74.33
77112;BME280;66064;50.226;14.344;2023-02-19T00:28:33;99480.56;;;9.15;74.43
77112;BME280;66064;50.226;14.344;2023-02-19T00:31:10;99485.00;;;9.16;76.14
77112;BME280;66064;50.226;14.344;2023-02-19T00:33:37;99472.75;;;9.24;75.91
77112;BME280;66064;50.226;14.344;2023-02-19T00:36:04;99470.91;;;9.19;75.94
77112;BME280;66064;50.226;14.344;2023-02-19T00:38:31;99478.91;;;9.22;76.08
77112;BME280;66064;50.226;14.344;2023-02-19T00:41:00;99454.06;;;9.18;76.91
77112;BME280;66064;50.226;14.344;2023-02-19T00:43:26;99466.56;;;9.24;76.30
77112;BME280;66064;50.226;14.344;2023-02-19T00:45:52;99468.09;;;9.08;76.59
77112;BME280;66064;50.226;14.344;2023-02-19T00:48:18;99473.31;;;9.03;77.00
77112;BME280;66064;50.226;14.344;2023-02-19T00:50:44;99468.84;;;8.99;76.62
77112;BME280;66064;50.226;14.344;2023-02-19T00:53:10;99464.16;;;8.83;77.60
77112;BME280;66064;50.226;14.344;2023-02-19T00:55:35;99479.19;;;8.83;77.83
77112;BME280;66064;50.226;14.344;2023-02-19T00:58:02;99475.41;;;8.67;78.36
77112;BME280;66064;50.226;14.344;2023-02-19T01:00:27;99442.34;;;8.47;78.28
77112;BME280;66064;50.226;14.344;2023-02-19T01:02:53;99460.28;;;8.63;77.81
77112;BME280;66064;50.226;14.344;2023-02-19T01:05:19;99460.91;;;8.47;77.82
77112;BME280;66064;50.226;14.344;2023-02-19T01:07:45;99464.53;;;8.52;78.27
77112;BME280;66064;50.226;14.344;2023-02-19T01:10:11;99478.84;;;8.63;77.14
77112;BME280;66064;50.226;14.344;2023-02-19T01:12:37;99471.84;;;8.66;77.22
77112;BME280;66064;50.226;14.344;2023-02-19T01:15:03;99455.19;;;8.73;76.95
77112;BME280;66064;50.226;14.344;2023-02-19T01:17:29;99456.25;;;8.86;75.61
77112;BME280;66064;50.226;14.344;2023-02-19T01:19:55;99443.09;;;8.94;74.97
77112;BME280;66064;50.226;14.344;2023-02-19T01:22:21;99447.50;;;8.92;75.38
77112;BME280;66064;50.226;14.344;2023-02-19T01:24:46;99437.81;;;8.95;74.46
77112;BME280;66064;50.226;14.344;2023-02-19T01:27:12;99438.81;;;9.03;74.56
77112;BME280;66064;50.226;14.344;2023-02-19T01:29:38;99432.59;;;9.01;74.05
77112;BME280;66064;50.226;14.344;2023-02-19T01:32:04;99426.47;;;9.05;74.37
77112;BME280;66064;50.226;14.344;2023-02-19T01:34:30;99413.91;;;8.95;74.26
77112;BME280;66064;50.226;14.344;2023-02-19T01:36:58;99390.91;;;8.93;74.32
77112;BME280;66064;50.226;14.344;2023-02-19T01:39:23;99393.59;;;8.97;74.08
77112;BME280;66064;50.226;14.344;2023-02-19T01:41:49;99386.72;;;9.11;73.44
77112;BME280;66064;50.226;14.344;2023-02-19T01:46:44;99391.13;;;9.08;73.67
77112;BME280;66064;50.226;14.344;2023-02-19T01:52:01;99367.06;;;8.97;74.18
77112;BME280;66064;50.226;14.344;2023-02-19T01:54:31;99386.69;;;9.10;73.65
77112;BME280;66064;50.226;14.344;2023-02-19T01:57:01;99374.41;;;9.17;73.49
77112;BME280;66064;50.226;14.344;2023-02-19T01:59:30;99369.97;;;9.16;73.38
77112;BME280;66064;50.226;14.344;2023-02-19T02:01:57;99370.84;;;9.16;73.14
77112;BME280;66064;50.226;14.344;2023-02-19T02:04:23;99372.63;;;9.16;73.84
77112;BME280;66064;50.226;14.344;2023-02-19T02:06:51;99360.97;;;9.04;73.96
77112;BME280;66064;50.226;14.344;2023-02-19T02:09:19;99353.88;;;9.03;73.36
77112;BME280;66064;50.226;14.344;2023-02-19T02:12:04;99371.72;;;9.15;73.85
77112;BME280;66064;50.226;14.344;2023-02-19T02:14:33;99362.75;;;9.05;73.92
77112;BME280;66064;50.226;14.344;2023-02-19T02:17:30;99361.84;;;9.03;74.20
77112;BME280;66064;50.226;14.344;2023-02-19T02:31:46;99306.16;;;9.06;74.69
77112;BME280;66064;50.226;14.344;2023-02-19T02:34:21;99292.84;;;9.03;74.62
77112;BME280;66064;50.226;14.344;2023-02-19T02:36:52;99310.59;;;9.09;75.09
77112;BME280;66064;50.226;14.344;2023-02-19T02:39:23;99313.28;;;9.12;74.41
77112;BME280;66064;50.226;14.344;2023-02-19T02:41:54;99295.44;;;9.00;75.05
77112;BME280;66064;50.226;14.344;2023-02-19T02:44:40;99304.38;;;9.05;75.09
77112;BME280;66064;50.226;14.344;2023-02-19T02:47:07;99303.44;;;9.03;75.48
77112;BME280;66064;50.226;14.344;2023-02-19T02:49:55;99293.50;;;8.87;76.11
77112;BME280;66064;50.226;14.344;2023-02-19T02:52:32;99308.63;;;8.91;76.22
77112;BME280;66064;50.226;14.344;2023-02-19T02:55:19;99294.44;;;8.89;76.64
77112;BME280;66064;50.226;14.344;2023-02-19T02:57:45;99294.44;;;8.89;76.51
77112;BME280;66064;50.226;14.344;2023-02-19T03:00:13;99296.09;;;8.83;76.55
77112;BME280;66064;50.226;14.344;2023-02-19T03:02:41;99288.22;;;8.87;76.97
77112;BME280;66064;50.226;14.344;2023-02-19T03:05:14;99268.44;;;8.64;76.76
77112;BME280;66064;50.226;14.344;2023-02-19T03:08:18;99280.06;;;8.72;77.37
77112;BME280;66064;50.226;14.344;2023-02-19T03:11:06;99257.97;;;8.73;77.15
77112;BME280;66064;50.226;14.344;2023-02-19T03:13:58;99241.13;;;8.71;77.32
77112;BME280;66064;50.226;14.344;2023-02-19T03:16:47;99256.22;;;8.78;77.42
77112;BME280;66064;50.226;14.344;2023-02-19T03:19:37;99261.56;;;8.80;77.38
77112;BME280;66064;50.226;14.344;2023-02-19T03:22:10;99245.50;;;8.67;77.40
77112;BME280;66064;50.226;14.344;2023-02-19T03:24:54;99264.03;;;8.66;78.03
77112;BME280;66064;50.226;14.344;2023-02-19T03:27:41;99249.81;;;8.61;78.10
77112;BME280;66064;50.226;14.344;2023-02-19T03:30:13;99241.91;;;8.64;78.06
77112;BME280;66064;50.226;14.344;2023-02-19T03:33:08;99234.81;;;8.63;77.92
77112;BME280;66064;50.226;14.344;2023-02-19T03:35:55;99248.19;;;8.70;78.30
77112;BME280;66064;50.226;14.344;2023-02-19T03:38:47;99241.09;;;8.69;77.81
77112;BME280;66064;50.226;14.344;2023-02-19T03:44:36;99240.13;;;8.60;78.42
77112;BME280;66064;50.226;14.344;2023-02-19T03:47:16;99235.06;;;8.81;77.25
77112;BME280;66064;50.226;14.344;2023-02-19T03:57:51;99229.78;;;8.84;76.99
77112;BME280;66064;50.226;14.344;2023-02-19T04:00:45;99237.94;;;8.99;76.16
77112;BME280;66064;50.226;14.344;2023-02-19T04:03:42;99232.66;;;9.02;76.16
77112;BME280;66064;50.226;14.344;2023-02-19T04:06:13;99225.59;;;9.03;76.09
77112;BME280;66064;50.226;14.344;2023-02-19T04:08:44;99209.59;;;8.97;75.57
77112;BME280;66064;50.226;14.344;2023-02-19T04:11:13;99230.09;;;9.08;75.86
77112;BME280;66064;50.226;14.344;2023-02-19T04:13:50;99231.94;;;9.19;75.23
77112;BME280;66064;50.226;14.344;2023-02-19T04:16:22;99230.25;;;9.25;74.88
77112;BME280;66064;50.226;14.344;2023-02-19T04:18:52;99229.31;;;9.22;75.18
77112;BME280;66064;50.226;14.344;2023-02-19T04:21:19;99228.44;;;9.21;75.27
77112;BME280;66064;50.226;14.344;2023-02-19T04:23:47;99217.84;;;9.23;74.99
77112;BME280;66064;50.226;14.344;2023-02-19T04:26:14;99224.94;;;9.27;74.63
77112;BME280;66064;50.226;14.344;2023-02-19T04:28:42;99220.47;;;9.21;74.73
77112;BME280;66064;50.226;14.344;2023-02-19T04:31:09;99189.41;;;9.12;74.83
77112;BME280;66064;50.226;14.344;2023-02-19T04:33:36;99210.81;;;9.31;74.56
77112;BME280;66064;50.226;14.344;2023-02-19T04:36:01;99193.00;;;9.18;74.81
77112;BME280;66064;50.226;14.344;2023-02-19T04:38:28;99197.53;;;9.29;74.65
77112;BME280;66064;50.226;14.344;2023-02-19T04:40:53;99175.28;;;9.17;74.63
77112;BME280;66064;50.226;14.344;2023-02-19T04:43:19;99159.28;;;9.10;74.94
77112;BME280;66064;50.226;14.344;2023-02-19T04:45:45;99188.63;;;9.23;75.16
77112;BME280;66064;50.226;14.344;2023-02-19T04:48:11;99182.41;;;9.19;75.35
77112;BME280;66064;50.226;14.344;2023-02-19T04:50:39;99187.75;;;9.27;75.00
77112;BME280;66064;50.226;14.344;2023-02-19T04:53:06;99175.31;;;9.20;74.72
77112;BME280;66064;50.226;14.344;2023-02-19T04:55:36;99189.50;;;9.22;74.94
77112;BME280;66064;50.226;14.344;2023-02-19T04:58:03;99185.06;;;9.21;74.51
77112;BME280;66064;50.226;14.344;2023-02-19T05:00:29;99192.19;;;9.25;74.75
77112;BME280;66064;50.226;14.344;2023-02-19T05:02:55;99169.03;;;9.11;74.69
77112;BME280;66064;50.226;14.344;2023-02-19T05:05:21;99163.81;;;9.21;74.09
77112;BME280;66064;50.226;14.344;2023-02-19T05:07:47;99182.53;;;9.33;74.06
77112;BME280;66064;50.226;14.344;2023-02-19T05:10:13;99139.03;;;9.20;73.42
77112;BME280;66064;50.226;14.344;2023-02-19T05:12:39;99171.97;;;9.40;73.34
77112;BME280;66064;50.226;14.344;2023-02-19T05:15:05;99159.56;;;9.38;73.01
77112;BME280;66064;50.226;14.344;2023-02-19T05:17:34;99172.94;;;9.50;72.74
77112;BME280;66064;50.226;14.344;2023-02-19T05:20:00;99139.19;;;9.37;72.88
77112;BME280;66064;50.226;14.344;2023-02-19T05:22:28;99164.94;;;9.47;72.84
77112;BME280;66064;50.226;14.344;2023-02-19T05:24:54;99176.47;;;9.49;73.01
77112;BME280;66064;50.226;14.344;2023-02-19T05:27:20;99167.53;;;9.42;72.64
77112;BME280;66064;50.226;14.344;2023-02-19T05:29:46;99172.06;;;9.51;72.66
77112;BME280;66064;50.226;14.344;2023-02-19T05:32:12;99172.94;;;9.52;72.72
77112;BME280;66064;50.226;14.344;2023-02-19T05:34:38;99173.78;;;9.46;72.95
77112;BME280;66064;50.226;14.344;2023-02-19T05:37:03;99166.72;;;9.48;72.96
77112;BME280;66064;50.226;14.344;2023-02-19T05:39:29;99163.16;;;9.46;73.02
77112;BME280;66064;50.226;14.344;2023-02-19T05:41:55;99170.31;;;9.53;72.82
77112;BME280;66064;50.226;14.344;2023-02-19T05:44:21;99168.56;;;9.55;72.68
77112;BME280;66064;50.226;14.344;2023-02-19T05:46:47;99159.72;;;9.61;72.06
77112;BME280;66064;50.226;14.344;2023-02-19T05:49:13;99165.03;;;9.56;72.72
77112;BME280;66064;50.226;14.344;2023-02-19T05:51:39;99171.22;;;9.58;72.66
77112;BME280;66064;50.226;14.344;2023-02-19T05:54:04;99162.38;;;9.61;72.68
77112;BME280;66064;50.226;14.344;2023-02-19T05:56:33;99173.00;;;9.61;72.41
77112;BME280;66064;50.226;14.344;2023-02-19T05:59:02;99165.00;;;9.53;72.26
77112;BME280;66064;50.226;14.344;2023-02-19T06:01:33;99173.00;;;9.61;72.67
77112;BME280;66064;50.226;14.344;2023-02-19T06:03:59;99164.16;;;9.62;72.48
77112;BME280;66064;50.226;14.344;2023-02-19T06:06:26;99173.00;;;9.61;72.64
77112;BME280;66064;50.226;14.344;2023-02-19T06:08:52;99168.59;;;9.63;72.82
77112;BME280;66064;50.226;14.344;2023-02-19T06:11:19;99148.16;;;9.53;72.46
77112;BME280;66064;50.226;14.344;2023-02-19T06:13:45;99147.22;;;9.46;72.44
77112;BME280;66064;50.226;14.344;2023-02-19T06:16:11;99157.97;;;9.63;72.55
77112;BME280;66064;50.226;14.344;2023-02-19T06:18:37;99127.81;;;9.53;71.57
77112;BME280;66064;50.226;14.344;2023-02-19T06:21:06;99161.56;;;9.66;72.38
77112;BME280;66064;50.226;14.344;2023-02-19T06:23:33;99166.94;;;9.78;71.54
77112;BME280;66064;50.226;14.344;2023-02-19T06:26:10;99145.53;;;9.54;72.72
77112;BME280;66064;50.226;14.344;2023-02-19T06:28:37;99147.38;;;9.64;71.24
77112;BME280;66064;50.226;14.344;2023-02-19T06:31:04;99151.00;;;9.74;71.63
77112;BME280;66064;50.226;14.344;2023-02-19T06:33:31;99153.72;;;9.86;71.19
77112;BME280;66064;50.226;14.344;2023-02-19T06:35:59;99159.97;;;9.96;70.73
77112;BME280;66064;50.226;14.344;2023-02-19T06:38:25;99159.06;;;9.92;70.51
77112;BME280;66064;50.226;14.344;2023-02-19T06:40:52;99156.50;;;10.03;70.33
77112;BME280;66064;50.226;14.344;2023-02-19T06:43:18;99159.16;;;10.06;69.45
77112;BME280;66064;50.226;14.344;2023-02-19T06:45:44;99158.19;;;9.95;70.79
77112;BME280;66064;50.226;14.344;2023-02-19T06:48:09;99156.41;;;9.94;69.91
77112;BME280;66064;50.226;14.344;2023-02-19T06:50:35;99152.84;;;9.92;70.31
77112;BME280;66064;50.226;14.344;2023-02-19T06:53:01;99166.13;;;9.87;70.56
77112;BME280;66064;50.226;14.344;2023-02-19T06:55:27;99158.16;;;9.92;70.69
77112;BME280;66064;50.226;14.344;2023-02-19T06:57:53;99168.88;;;9.99;70.71
77112;BME280;66064;50.226;14.344;2023-02-19T07:00:19;99173.25;;;9.96;70.44
77112;BME280;66064;50.226;14.344;2023-02-19T07:02:45;99170.63;;;9.99;70.13
77112;BME280;66064;50.226;14.344;2023-02-19T07:05:11;99186.63;;;10.05;69.96
77112;BME280;66064;50.226;14.344;2023-02-19T07:07:36;99182.19;;;10.02;70.41
77112;BME280;66064;50.226;14.344;2023-02-19T07:10:03;99191.00;;;9.97;71.06
77112;BME280;66064;50.226;14.344;2023-02-19T07:12:28;99196.28;;;9.89;71.85
77112;BME280;66064;50.226;14.344;2023-02-19T07:14:55;99188.34;;;9.97;70.59
77112;BME280;66064;50.226;14.344;2023-02-19T07:17:20;99205.22;;;10.03;70.32
77112;BME280;66064;50.226;14.344;2023-02-19T07:19:46;99197.28;;;10.05;69.81
77112;BME280;66064;50.226;14.344;2023-02-19T07:22:12;99211.50;;;10.16;69.58
77112;BME280;66064;50.226;14.344;2023-02-19T07:24:38;99227.44;;;10.13;69.81
77112;BME280;66064;50.226;14.344;2023-02-19T07:27:03;99224.72;;;10.07;70.25
77112;BME280;66064;50.226;14.344;2023-02-19T07:29:30;99237.16;;;10.06;70.29
77112;BME280;66064;50.226;14.344;2023-02-19T07:31:56;99233.59;;;10.07;69.72
77112;BME280;66064;50.226;14.344;2023-02-19T07:34:22;99241.59;;;10.12;69.84
77112;BME280;66064;50.226;14.344;2023-02-19T07:36:47;99218.47;;;9.99;70.17
77112;BME280;66064;50.226;14.344;2023-02-19T07:39:13;99252.38;;;10.21;69.68
77112;BME280;66064;50.226;14.344;2023-02-19T07:41:40;99244.31;;;10.18;70.34
77112;BME280;66064;50.226;14.344;2023-02-19T07:44:06;99262.13;;;10.22;70.62
77112;BME280;66064;50.226;14.344;2023-02-19T07:46:32;99242.47;;;10.09;70.91
77112;BME280;66064;50.226;14.344;2023-02-19T07:48:58;99254.00;;;10.10;71.67
77112;BME280;66064;50.226;14.344;2023-02-19T07:51:24;99257.50;;;10.01;71.84
77112;BME280;66064;50.226;14.344;2023-02-19T07:53:51;99272.59;;;10.07;72.50
77112;BME280;66064;50.226;14.344;2023-02-19T07:56:18;99291.16;;;9.99;73.48
77112;BME280;66064;50.226;14.344;2023-02-19T07:58:44;99273.28;;;9.81;73.19
77112;BME280;66064;50.226;14.344;2023-02-19T08:01:16;99292.63;;;9.65;75.64
77112;BME280;66064;50.226;14.344;2023-02-19T08:03:43;99311.16;;;9.58;76.17
77112;BME280;66064;50.226;14.344;2023-02-19T08:06:10;99299.44;;;9.42;76.91
77112;BME280;66064;50.226;14.344;2023-02-19T08:08:38;99277.16;;;9.28;76.50
77112;BME280;66064;50.226;14.344;2023-02-19T08:11:05;99300.13;;;9.21;77.17
77112;BME280;66064;50.226;14.344;2023-02-19T08:13:51;99286.78;;;9.17;76.46
77112;BME280;66064;50.226;14.344;2023-02-19T08:16:18;99297.19;;;8.98;76.96
77112;BME280;66064;50.226;14.344;2023-02-19T08:18:45;99319.47;;;9.12;77.41
77112;BME280;66064;50.226;14.344;2023-02-19T08:21:12;99324.72;;;9.06;78.27
77112;BME280;66064;50.226;14.344;2023-02-19T08:23:38;99320.34;;;9.11;78.73
77112;BME280;66064;50.226;14.344;2023-02-19T08:26:05;99321.25;;;9.12;78.93
77112;BME280;66064;50.226;14.344;2023-02-19T08:28:31;99318.66;;;9.17;78.04
77112;BME280;66064;50.226;14.344;2023-02-19T08:31:02;99297.50;;;9.23;77.79
77112;BME280;66064;50.226;14.344;2023-02-19T08:33:29;99297.50;;;9.23;78.75
77112;BME280;66064;50.226;14.344;2023-02-19T08:35:55;99300.16;;;9.27;79.42
77112;BME280;66064;50.226;14.344;2023-02-19T08:38:22;99291.31;;;9.25;79.11
77112;BME280;66064;50.226;14.344;2023-02-19T08:40:48;99301.19;;;9.38;79.63
77112;BME280;66064;50.226;14.344;2023-02-19T08:43:15;99296.81;;;9.43;79.18
77112;BME280;66064;50.226;14.344;2023-02-19T08:45:43;99307.47;;;9.46;77.67
77112;BME280;66064;50.226;14.344;2023-02-19T08:48:10;99301.47;;;9.64;76.64
77112;BME280;66064;50.226;14.344;2023-02-19T08:50:36;99310.41;;;9.75;76.79
77112;BME280;66064;50.226;14.344;2023-02-19T08:53:04;99314.88;;;9.79;77.52
77112;BME280;66064;50.226;14.344;2023-02-19T08:55:30;99298.84;;;9.69;77.39
77112;BME280;66064;50.226;14.344;2023-02-19T08:57:56;99334.41;;;9.81;77.96
77112;BME280;66064;50.226;14.344;2023-02-19T09:00:22;99342.38;;;9.83;78.00
77112;BME280;66064;50.226;14.344;2023-02-19T09:02:48;99332.72;;;9.90;77.44
77112;BME280;66064;50.226;14.344;2023-02-19T09:05:15;99345.06;;;9.85;77.44
77112;BME280;66064;50.226;14.344;2023-02-19T09:07:41;99331.81;;;9.88;77.10
77112;BME280;66064;50.226;14.344;2023-02-19T09:10:10;99349.63;;;9.98;76.63
77112;BME280;66064;50.226;14.344;2023-02-19T09:12:36;99357.66;;;10.04;77.17
77112;BME280;66064;50.226;14.344;2023-02-19T09:15:03;99356.81;;;10.11;76.29
77112;BME280;66064;50.226;14.344;2023-02-19T09:17:30;99357.84;;;10.21;75.37
77112;BME280;66064;50.226;14.344;2023-02-19T09:19:55;99338.97;;;9.96;75.17
77112;BME280;66064;50.226;14.344;2023-02-19T09:22:21;99368.31;;;10.10;75.01
77112;BME280;66064;50.226;14.344;2023-02-19T09:24:47;99331.91;;;10.00;74.18
77112;BME280;66064;50.226;14.344;2023-02-19T09:27:15;99369.31;;;10.18;73.63
77112;BME280;66064;50.226;14.344;2023-02-19T09:29:41;99366.72;;;10.24;73.26
77112;BME280;66064;50.226;14.344;2023-02-19T09:32:07;99344.28;;;9.98;71.52
77112;BME280;66064;50.226;14.344;2023-02-19T09:34:33;99365.56;;;9.98;72.87
77112;BME280;66064;50.226;14.344;2023-02-19T09:36:59;99347.63;;;9.74;72.96
77112;BME280;66064;50.226;14.344;2023-02-19T09:39:25;99362.88;;;9.95;72.37
77112;BME280;66064;50.226;14.344;2023-02-19T09:42:10;99383.41;;;10.11;72.74
77112;BME280;66064;50.226;14.344;2023-02-19T09:44:39;99358.59;;;10.12;71.84
77112;BME280;66064;50.226;14.344;2023-02-19T09:47:12;99388.13;;;10.36;71.94
77112;BME280;66064;50.226;14.344;2023-02-19T09:49:41;99392.69;;;10.52;70.93
77112;BME280;66064;50.226;14.344;2023-02-19T09:54:43;99387.25;;;10.39;70.38
77112;BME280;66064;50.226;14.344;2023-02-19T09:57:16;99398.63;;;10.26;69.79
77112;BME280;66064;50.226;14.344;2023-02-19T09:59:45;99411.84;;;10.18;69.33
77112;BME280;66064;50.226;14.344;2023-02-19T10:02:21;99403.72;;;10.03;70.42
77112;BME280;66064;50.226;14.344;2023-02-19T10:04:48;99416.06;;;9.96;70.80
77112;BME280;66064;50.226;14.344;2023-02-19T10:07:24;99409.69;;;9.80;72.36
77112;BME280;66064;50.226;14.344;2023-02-19T10:12:36;99422.00;;;9.72;73.96
77112;BME280;66064;50.226;14.344;2023-02-19T10:15:15;99425.69;;;9.83;73.38
77112;BME280;66064;50.226;14.344;2023-02-19T10:17:42;99439.00;;;9.87;73.23
77112;BME280;66064;50.226;14.344;2023-02-19T10:20:15;99456.81;;;9.95;73.52
77112;BME280;66064;50.226;14.344;2023-02-19T10:22:43;99455.75;;;9.81;73.20
77112;BME280;66064;50.226;14.344;2023-02-19T10:25:14;99462.75;;;9.74;74.79
77112;BME280;66064;50.226;14.344;2023-02-19T10:27:42;99451.88;;;9.53;75.66
77112;BME280;66064;50.226;14.344;2023-02-19T10:30:22;99472.16;;;9.46;78.05
77112;BME280;66064;50.226;14.344;2023-02-19T10:33:04;99488.22;;;9.54;77.67
77112;BME280;66064;50.226;14.344;2023-02-19T10:35:58;99493.75;;;9.71;78.11
77112;BME280;66064;50.226;14.344;2023-02-19T10:38:34;99503.53;;;9.76;77.46
77112;BME280;66064;50.226;14.344;2023-02-19T10:43:35;99522.84;;;9.63;77.46
77112;BME280;66064;50.226;14.344;2023-02-19T10:46:17;99542.47;;;9.12;78.21
77112;BME280;66064;50.226;14.344;2023-02-19T10:48:49;99543.88;;;8.89;80.31
77112;BME280;66064;50.226;14.344;2023-02-19T10:51:17;99528.41;;;8.64;81.21
77112;BME280;66064;50.226;14.344;2023-02-19T10:54:14;99550.63;;;8.70;81.15
77112;BME280;66064;50.226;14.344;2023-02-19T10:56:41;99561.50;;;8.86;81.48
77112;BME280;66064;50.226;14.344;2023-02-19T11:01:54;99565.97;;;8.88;81.75
77112;BME280;66064;50.226;14.344;2023-02-19T11:04:20;99564.97;;;8.82;81.32
77112;BME280;66064;50.226;14.344;2023-02-19T11:06:46;99548.97;;;8.75;82.24
77112;BME280;66064;50.226;14.344;2023-02-19T11:09:39;99578.72;;;9.10;81.06
77112;BME280;66064;50.226;14.344;2023-02-19T11:12:07;99578.69;;;9.07;81.42
77112;BME280;66064;50.226;14.344;2023-02-19T11:14:34;99573.34;;;9.06;80.21
77112;BME280;66064;50.226;14.344;2023-02-19T11:17:02;99583.22;;;9.15;81.16
77112;BME280;66064;50.226;14.344;2023-02-19T11:19:40;99587.06;;;9.33;78.43
77112;BME280;66064;50.226;14.344;2023-02-19T11:24:55;99589.97;;;8.96;78.21
77112;BME280;66064;50.226;14.344;2023-02-19T11:27:24;99608.53;;;8.94;77.32
77112;BME280;66064;50.226;14.344;2023-02-19T11:30:36;99618.78;;;8.73;75.86
77112;BME280;66064;50.226;14.344;2023-02-19T11:33:31;99634.16;;;8.46;76.52
77112;BME280;66064;50.226;14.344;2023-02-19T11:36:17;99622.53;;;8.39;78.19
77112;BME280;66064;50.226;14.344;2023-02-19T11:38:47;99627.75;;;8.34;76.91
77112;BME280;66064;50.226;14.344;2023-02-19T11:50:51;99650.97;;;8.46;73.66
77112;BME280;66064;50.226;14.344;2023-02-19T11:53:26;99641.75;;;8.30;73.47
77112;BME280;66064;50.226;14.344;2023-02-19T12:10:07;99678.34;;;7.29;73.44
77112;BME280;66064;50.226;14.344;2023-02-19T12:12:42;99693.22;;;7.26;74.16
77112;BME280;66064;50.226;14.344;2023-02-19T12:20:28;99717.09;;;7.63;73.89
77112;BME280;66064;50.226;14.344;2023-02-19T12:23:37;99730.22;;;7.57;74.14
77112;BME280;66064;50.226;14.344;2023-02-19T12:26:21;99731.91;;;7.55;73.67
77112;BME280;66064;50.226;14.344;2023-02-19T12:29:01;99742.78;;;7.66;73.22
77112;BME280;66064;50.226;14.344;2023-02-19T12:44:46;99757.19;;;7.77;67.56
77112;BME280;66064;50.226;14.344;2023-02-19T12:47:23;99768.53;;;7.71;68.17
77112;BME280;66064;50.226;14.344;2023-02-19T12:50:16;99752.44;;;7.64;68.01
77112;BME280;66064;50.226;14.344;2023-02-19T12:52:48;99784.41;;;7.71;66.14
77112;BME280;66064;50.226;14.344;2023-02-19T12:55:24;99779.91;;;7.67;66.70
77112;BME280;66064;50.226;14.344;2023-02-19T12:57:52;99787.78;;;7.66;66.92
77112;BME280;66064;50.226;14.344;2023-02-19T13:00:35;99754.03;;;7.57;66.25
77112;BME280;66064;50.226;14.344;2023-02-19T13:06:00;99730.94;;;7.52;66.75
77112;BME280;66064;50.226;14.344;2023-02-19T13:11:02;99780.28;;;7.83;65.59
77112;BME280;66064;50.226;14.344;2023-02-19T13:16:09;99768.50;;;8.44;64.80
77112;BME280;66064;50.226;14.344;2023-02-19T13:18:54;99762.38;;;9.35;60.45
77112;BME280;66064;50.226;14.344;2023-02-19T13:21:26;99775.28;;;10.78;57.70
77112;BME280;66064;50.226;14.344;2023-02-19T13:24:44;99772.59;;;12.72;52.50
77112;BME280;66064;50.226;14.344;2023-02-19T13:27:39;99771.09;;;13.38;48.57
77112;BME280;66064;50.226;14.344;2023-02-19T13:30:25;99746.19;;;13.90;47.02
77112;BME280;66064;50.226;14.344;2023-02-19T13:33:02;99780.06;;;13.85;47.45
77112;BME280;66064;50.226;14.344;2023-02-19T13:35:58;99747.06;;;14.05;45.91
77112;BME280;66064;50.226;14.344;2023-02-19T13:38:37;99777.38;;;14.19;45.52
77112;BME280;66064;50.226;14.344;2023-02-19T13:41:20;99801.41;;;13.43;46.99
77112;BME280;66064;50.226;14.344;2023-02-19T13:43:57;99802.34;;;13.60;45.49
77112;BME280;66064;50.226;14.344;2023-02-19T13:46:34;99779.16;;;13.45;46.62
77112;BME280;66064;50.226;14.344;2023-02-19T13:58:38;99817.47;;;9.96;56.29
77112;BME280;66064;50.226;14.344;2023-02-19T14:01:16;99818.56;;;9.56;57.97
77112;BME280;66064;50.226;14.344;2023-02-19T14:03:52;99842.09;;;9.36;58.22
77112;BME280;66064;50.226;14.344;2023-02-19T14:06:18;99835.00;;;8.92;60.06
77112;BME280;66064;50.226;14.344;2023-02-19T14:08:55;99832.63;;;8.65;60.49
77112;BME280;66064;50.226;14.344;2023-02-19T14:16:57;99836.72;;;7.79;64.44
77112;BME280;66064;50.226;14.344;2023-02-19T14:30:54;99844.44;;;7.38;65.11
77112;BME280;66064;50.226;14.344;2023-02-19T14:36:19;99875.69;;;7.51;66.51
77112;BME280;66064;50.226;14.344;2023-02-19T14:39:01;99867.56;;;7.44;66.48
77112;BME280;66064;50.226;14.344;2023-02-19T14:41:31;99866.66;;;7.43;67.22
77112;BME280;66064;50.226;14.344;2023-02-19T14:43:59;99874.72;;;7.48;67.72
77112;BME280;66064;50.226;14.344;2023-02-19T14:46:30;99874.56;;;7.42;66.26
77112;BME280;66064;50.226;14.344;2023-02-19T14:49:06;99862.31;;;7.15;66.62
77112;BME280;66064;50.226;14.344;2023-02-19T14:51:40;99884.38;;;7.14;68.36
77112;BME280;66064;50.226;14.344;2023-02-19T14:54:23;99860.97;;;6.99;67.11
77112;BME280;66064;50.226;14.344;2023-02-19T14:56:54;99885.69;;;7.00;67.99
77112;BME280;66064;50.226;14.344;2023-02-19T14:59:26;99878.50;;;6.66;68.00
77112;BME280;66064;50.226;14.344;2023-02-19T15:04:24;99902.38;;;6.41;69.70
77112;BME280;66064;50.226;14.344;2023-02-19T15:06:52;99905.38;;;6.24;69.48
77112;BME280;66064;50.226;14.344;2023-02-19T15:09:26;99902.66;;;5.96;70.86
77112;BME280;66064;50.226;14.344;2023-02-19T15:11:54;99900.50;;;5.86;71.11
77112;BME280;66064;50.226;14.344;2023-02-19T15:14:23;99899.19;;;5.73;72.13
77112;BME280;66064;50.226;14.344;2023-02-19T15:16:58;99893.66;;;5.66;72.34
77112;BME280;66064;50.226;14.344;2023-02-19T15:19:25;99929.78;;;5.67;73.20
77112;BME280;66064;50.226;14.344;2023-02-19T15:21:53;99912.88;;;5.61;72.50
77112;BME280;66064;50.226;14.344;2023-02-19T15:24:20;99940.06;;;5.59;72.98